sensor_id;sensor_type;location;lat;lon;timestamp;P1;durP1;ratioP1;P2;durP2;ratioP2
11675;SDS011;5894;42.768;23.404;2022-08-20T00:01:13;9.02;;;6.03;;
11675;SDS011;5894;42.768;23.404;2022-08-20T00:03:42;7.82;;;5.82;;
11675;SDS011;5894;42.768;23.404;2022-08-20T00:06:10;6.35;;;5.40;;
11675;SDS011;5894;42.768;23.404;2022-08-20T00:08:38;5.65;;;5.05;;
11675;SDS011;5894;42.768;23.404;2022-08-20T00:11:08;6.35;;;5.00;;
11675;SDS011;5894;42.768;23.404;2022-08-20T00:13:42;5.70;;;5.07;;
11675;SDS011;5894;42.768;23.404;2022-08-20T00:16:11;6.90;;;5.00;;
11675;SDS011;5894;42.768;23.404;2022-08-20T00:18:39;9.55;;;5.40;;
11675;SDS011;5894;42.768;23.404;2022-08-20T00:21:08;5.85;;;5.38;;
11675;SDS011;5894;42.768;23.404;2022-08-20T00:23:36;7.55;;;5.20;;
11675;SDS011;5894;42.768;23.404;2022-08-20T00:26:04;6.07;;;5.47;;
11675;SDS011;5894;42.768;23.404;2022-08-20T00:28:32;6.15;;;5.55;;
11675;SDS011;5894;42.768;23.404;2022-08-20T00:31:08;8.27;;;5.70;;
11675;SDS011;5894;42.768;23.404;2022-08-20T00:33:36;5.82;;;5.32;;
11675;SDS011;5894;42.768;23.404;2022-08-20T00:36:06;6.35;;;5.70;;
11675;SDS011;5894;42.768;23.404;2022-08-20T00:38:35;5.80;;;5.20;;
11675;SDS011;5894;42.768;23.404;2022-08-20T00:41:07;6.00;;;5.10;;
11675;SDS011;5894;42.768;23.404;2022-08-20T00:43:39;7.20;;;5.45;;
11675;SDS011;5894;42.768;23.404;2022-08-20T00:46:10;8.30;;;5.70;;
11675;SDS011;5894;42.768;23.404;2022-08-20T00:48:41;7.53;;;5.57;;
11675;SDS011;5894;42.768;23.404;2022-08-20T00:51:10;6.70;;;5.70;;
11675;SDS011;5894;42.768;23.404;2022-08-20T00:53:43;6.10;;;5.50;;
11675;SDS011;5894;42.768;23.404;2022-08-20T00:56:11;7.20;;;5.60;;
11675;SDS011;5894;42.768;23.404;2022-08-20T00:58:41;7.20;;;5.70;;
11675;SDS011;5894;42.768;23.404;2022-08-20T01:01:10;6.40;;;5.65;;
11675;SDS011;5894;42.768;23.404;2022-08-20T01:03:37;9.20;;;6.10;;
11675;SDS011;5894;42.768;23.404;2022-08-20T01:06:06;7.80;;;6.30;;
11675;SDS011;5894;42.768;23.404;2022-08-20T01:08:37;7.22;;;6.28;;
11675;SDS011;5894;42.768;23.404;2022-08-20T01:11:05;8.25;;;6.10;;
11675;SDS011;5894;42.768;23.404;2022-08-20T01:13:37;7.20;;;5.75;;
11675;SDS011;5894;42.768;23.404;2022-08-20T01:16:09;6.35;;;5.75;;
11675;SDS011;5894;42.768;23.404;2022-08-20T01:18:42;10.77;;;6.32;;
11675;SDS011;5894;42.768;23.404;2022-08-20T01:21:12;8.25;;;6.57;;
11675;SDS011;5894;42.768;23.404;2022-08-20T01:23:41;7.15;;;6.45;;
11675;SDS011;5894;42.768;23.404;2022-08-20T01:26:16;6.70;;;6.00;;
11675;SDS011;5894;42.768;23.404;2022-08-20T01:28:49;6.30;;;5.60;;
11675;SDS011;5894;42.768;23.404;2022-08-20T01:31:21;6.32;;;5.72;;
11675;SDS011;5894;42.768;23.404;2022-08-20T01:33:50;6.72;;;5.32;;
11675;SDS011;5894;42.768;23.404;2022-08-20T01:36:23;7.03;;;5.60;;
11675;SDS011;5894;42.768;23.404;2022-08-20T01:38:54;6.40;;;5.80;;
11675;SDS011;5894;42.768;23.404;2022-08-20T01:41:38;6.95;;;5.70;;
11675;SDS011;5894;42.768;23.404;2022-08-20T01:44:13;5.75;;;5.15;;
11675;SDS011;5894;42.768;23.404;2022-08-20T01:46:41;5.88;;;5.28;;
11675;SDS011;5894;42.768;23.404;2022-08-20T01:49:11;7.88;;;5.50;;
11675;SDS011;5894;42.768;23.404;2022-08-20T01:51:42;6.75;;;5.15;;
11675;SDS011;5894;42.768;23.404;2022-08-20T01:54:10;5.90;;;5.30;;
11675;SDS011;5894;42.768;23.404;2022-08-20T01:56:49;6.50;;;5.60;;
11675;SDS011;5894;42.768;23.404;2022-08-20T01:59:19;8.63;;;5.25;;
11675;SDS011;5894;42.768;23.404;2022-08-20T02:01:46;5.75;;;5.15;;
11675;SDS011;5894;42.768;23.404;2022-08-20T02:04:13;6.32;;;5.38;;
11675;SDS011;5894;42.768;23.404;2022-08-20T02:06:47;6.45;;;5.35;;
11675;SDS011;5894;42.768;23.404;2022-08-20T02:09:16;9.25;;;5.72;;
11675;SDS011;5894;42.768;23.404;2022-08-20T02:11:43;7.60;;;5.50;;
11675;SDS011;5894;42.768;23.404;2022-08-20T02:14:13;7.88;;;5.40;;
11675;SDS011;5894;42.768;23.404;2022-08-20T02:16:42;7.55;;;5.90;;
11675;SDS011;5894;42.768;23.404;2022-08-20T02:19:12;6.50;;;5.90;;
11675;SDS011;5894;42.768;23.404;2022-08-20T02:21:43;6.43;;;5.82;;
11675;SDS011;5894;42.768;23.404;2022-08-20T02:24:12;6.05;;;5.45;;
11675;SDS011;5894;42.768;23.404;2022-08-20T02:26:39;5.90;;;5.40;;
11675;SDS011;5894;42.768;23.404;2022-08-20T02:29:08;8.55;;;5.95;;
11675;SDS011;5894;42.768;23.404;2022-08-20T02:31:37;6.80;;;5.47;;
11675;SDS011;5894;42.768;23.404;2022-08-20T02:34:06;9.07;;;5.18;;
11675;SDS011;5894;42.768;23.404;2022-08-20T02:36:34;6.07;;;5.47;;
11675;SDS011;5894;42.768;23.404;2022-08-20T02:39:02;6.60;;;5.90;;
11675;SDS011;5894;42.768;23.404;2022-08-20T02:41:31;6.70;;;5.95;;
11675;SDS011;5894;42.768;23.404;2022-08-20T02:43:57;7.10;;;5.50;;
11675;SDS011;5894;42.768;23.404;2022-08-20T02:46:25;6.95;;;5.93;;
11675;SDS011;5894;42.768;23.404;2022-08-20T02:48:54;5.97;;;5.38;;
11675;SDS011;5894;42.768;23.404;2022-08-20T02:51:21;7.18;;;5.80;;
11675;SDS011;5894;42.768;23.404;2022-08-20T02:53:48;6.82;;;5.60;;
11675;SDS011;5894;42.768;23.404;2022-08-20T02:56:17;6.88;;;6.00;;
11675;SDS011;5894;42.768;23.404;2022-08-20T02:58:44;6.13;;;5.53;;
11675;SDS011;5894;42.768;23.404;2022-08-20T03:01:13;8.80;;;6.10;;
11675;SDS011;5894;42.768;23.404;2022-08-20T03:03:42;7.47;;;5.93;;
11675;SDS011;5894;42.768;23.404;2022-08-20T03:06:14;7.72;;;6.93;;
11675;SDS011;5894;42.768;23.404;2022-08-20T03:08:41;11.18;;;6.60;;
11675;SDS011;5894;42.768;23.404;2022-08-20T03:11:08;9.05;;;6.45;;
11675;SDS011;5894;42.768;23.404;2022-08-20T03:13:36;7.88;;;6.78;;
11675;SDS011;5894;42.768;23.404;2022-08-20T03:16:03;7.68;;;6.57;;
11675;SDS011;5894;42.768;23.404;2022-08-20T03:18:31;6.78;;;6.07;;
11675;SDS011;5894;42.768;23.404;2022-08-20T03:21:00;7.60;;;6.22;;
11675;SDS011;5894;42.768;23.404;2022-08-20T03:23:29;6.95;;;6.18;;
11675;SDS011;5894;42.768;23.404;2022-08-20T03:25:56;9.25;;;6.72;;
11675;SDS011;5894;42.768;23.404;2022-08-20T03:28:24;7.43;;;6.68;;
11675;SDS011;5894;42.768;23.404;2022-08-20T03:30:51;7.55;;;6.85;;
11675;SDS011;5894;42.768;23.404;2022-08-20T03:33:20;7.53;;;6.80;;
11675;SDS011;5894;42.768;23.404;2022-08-20T03:35:47;8.55;;;7.65;;
11675;SDS011;5894;42.768;23.404;2022-08-20T03:38:15;13.45;;;9.25;;
11675;SDS011;5894;42.768;23.404;2022-08-20T03:40:47;8.20;;;7.47;;
11675;SDS011;5894;42.768;23.404;2022-08-20T03:43:15;8.00;;;7.20;;
11675;SDS011;5894;42.768;23.404;2022-08-20T03:45:44;8.82;;;7.03;;
11675;SDS011;5894;42.768;23.404;2022-08-20T03:48:14;7.95;;;7.05;;
11675;SDS011;5894;42.768;23.404;2022-08-20T03:50:43;7.65;;;6.85;;
11675;SDS011;5894;42.768;23.404;2022-08-20T03:53:11;8.05;;;6.68;;
11675;SDS011;5894;42.768;23.404;2022-08-20T03:55:39;9.18;;;6.90;;
11675;SDS011;5894;42.768;23.404;2022-08-20T03:58:08;10.18;;;7.28;;
11675;SDS011;5894;42.768;23.404;2022-08-20T04:00:38;7.55;;;6.78;;
11675;SDS011;5894;42.768;23.404;2022-08-20T04:03:08;9.25;;;7.10;;
11675;SDS011;5894;42.768;23.404;2022-08-20T04:05:35;8.02;;;6.63;;
11675;SDS011;5894;42.768;23.404;2022-08-20T04:08:04;8.07;;;6.57;;
11675;SDS011;5894;42.768;23.404;2022-08-20T04:10:33;8.32;;;7.13;;
11675;SDS011;5894;42.768;23.404;2022-08-20T04:13:02;9.10;;;6.90;;
11675;SDS011;5894;42.768;23.404;2022-08-20T04:15:31;8.43;;;6.97;;
11675;SDS011;5894;42.768;23.404;2022-08-20T04:17:59;12.45;;;6.95;;
11675;SDS011;5894;42.768;23.404;2022-08-20T04:20:30;10.80;;;6.95;;
11675;SDS011;5894;42.768;23.404;2022-08-20T04:22:58;8.88;;;6.72;;
11675;SDS011;5894;42.768;23.404;2022-08-20T04:25:25;10.50;;;6.90;;
11675;SDS011;5894;42.768;23.404;2022-08-20T04:27:53;12.45;;;7.30;;
11675;SDS011;5894;42.768;23.404;2022-08-20T04:30:20;9.90;;;7.50;;
11675;SDS011;5894;42.768;23.404;2022-08-20T04:32:48;9.48;;;7.53;;
11675;SDS011;5894;42.768;23.404;2022-08-20T04:35:17;12.30;;;7.03;;
11675;SDS011;5894;42.768;23.404;2022-08-20T04:37:44;7.88;;;6.82;;
11675;SDS011;5894;42.768;23.404;2022-08-20T04:40:13;8.88;;;7.53;;
11675;SDS011;5894;42.768;23.404;2022-08-20T04:43:00;10.73;;;7.60;;
11675;SDS011;5894;42.768;23.404;2022-08-20T04:45:29;8.95;;;8.02;;
11675;SDS011;5894;42.768;23.404;2022-08-20T04:48:00;8.38;;;7.57;;
11675;SDS011;5894;42.768;23.404;2022-08-20T04:50:29;12.88;;;8.27;;
11675;SDS011;5894;42.768;23.404;2022-08-20T04:52:59;9.10;;;8.05;;
11675;SDS011;5894;42.768;23.404;2022-08-20T04:55:26;11.27;;;7.75;;
11675;SDS011;5894;42.768;23.404;2022-08-20T04:57:53;14.70;;;8.70;;
11675;SDS011;5894;42.768;23.404;2022-08-20T05:00:22;8.73;;;7.85;;
11675;SDS011;5894;42.768;23.404;2022-08-20T05:02:49;10.23;;;7.70;;
11675;SDS011;5894;42.768;23.404;2022-08-20T05:05:17;9.35;;;7.65;;
11675;SDS011;5894;42.768;23.404;2022-08-20T05:07:46;11.07;;;7.45;;
11675;SDS011;5894;42.768;23.404;2022-08-20T05:10:14;9.13;;;7.72;;
11675;SDS011;5894;42.768;23.404;2022-08-20T05:12:43;10.55;;;7.70;;
11675;SDS011;5894;42.768;23.404;2022-08-20T05:15:16;8.98;;;7.65;;
11675;SDS011;5894;42.768;23.404;2022-08-20T05:17:43;11.43;;;8.48;;
11675;SDS011;5894;42.768;23.404;2022-08-20T05:20:11;10.60;;;8.07;;
11675;SDS011;5894;42.768;23.404;2022-08-20T05:22:43;11.45;;;8.15;;
11675;SDS011;5894;42.768;23.404;2022-08-20T05:25:12;11.05;;;8.57;;
11675;SDS011;5894;42.768;23.404;2022-08-20T05:27:40;10.88;;;7.80;;
11675;SDS011;5894;42.768;23.404;2022-08-20T05:30:08;10.20;;;7.47;;
11675;SDS011;5894;42.768;23.404;2022-08-20T05:32:36;9.43;;;7.40;;
11675;SDS011;5894;42.768;23.404;2022-08-20T05:35:05;8.07;;;7.20;;
11675;SDS011;5894;42.768;23.404;2022-08-20T05:37:34;7.90;;;7.10;;
11675;SDS011;5894;42.768;23.404;2022-08-20T05:40:08;9.77;;;7.20;;
11675;SDS011;5894;42.768;23.404;2022-08-20T05:42:36;7.53;;;6.82;;
11675;SDS011;5894;42.768;23.404;2022-08-20T05:45:03;9.05;;;7.03;;
11675;SDS011;5894;42.768;23.404;2022-08-20T05:47:31;7.60;;;6.70;;
11675;SDS011;5894;42.768;23.404;2022-08-20T05:50:02;7.75;;;6.65;;
11675;SDS011;5894;42.768;23.404;2022-08-20T05:52:29;7.05;;;6.40;;
11675;SDS011;5894;42.768;23.404;2022-08-20T05:54:56;9.20;;;6.97;;
11675;SDS011;5894;42.768;23.404;2022-08-20T05:57:24;8.63;;;7.80;;
11675;SDS011;5894;42.768;23.404;2022-08-20T05:59:51;10.20;;;7.18;;
11675;SDS011;5894;42.768;23.404;2022-08-20T06:02:18;8.07;;;6.95;;
11675;SDS011;5894;42.768;23.404;2022-08-20T06:05:02;10.60;;;7.18;;
11675;SDS011;5894;42.768;23.404;2022-08-20T06:07:29;10.13;;;6.95;;
11675;SDS011;5894;42.768;23.404;2022-08-20T06:09:56;9.68;;;7.47;;
11675;SDS011;5894;42.768;23.404;2022-08-20T06:12:23;9.10;;;7.10;;
11675;SDS011;5894;42.768;23.404;2022-08-20T06:14:51;9.80;;;7.25;;
11675;SDS011;5894;42.768;23.404;2022-08-20T06:17:18;10.05;;;7.68;;
11675;SDS011;5894;42.768;23.404;2022-08-20T06:19:46;10.02;;;7.40;;
11675;SDS011;5894;42.768;23.404;2022-08-20T06:22:13;12.15;;;7.75;;
11675;SDS011;5894;42.768;23.404;2022-08-20T06:24:40;8.68;;;7.40;;
11675;SDS011;5894;42.768;23.404;2022-08-20T06:27:11;10.13;;;7.40;;
11675;SDS011;5894;42.768;23.404;2022-08-20T06:29:40;11.23;;;7.30;;
11675;SDS011;5894;42.768;23.404;2022-08-20T06:32:07;12.55;;;7.88;;
11675;SDS011;5894;42.768;23.404;2022-08-20T06:34:35;9.48;;;7.25;;
11675;SDS011;5894;42.768;23.404;2022-08-20T06:53:01;11.05;;;8.05;;
11675;SDS011;5894;42.768;23.404;2022-08-20T06:55:28;13.35;;;7.28;;
11675;SDS011;5894;42.768;23.404;2022-08-20T06:57:56;8.85;;;7.00;;
11675;SDS011;5894;42.768;23.404;2022-08-20T07:00:24;7.75;;;6.95;;
11675;SDS011;5894;42.768;23.404;2022-08-20T07:02:51;8.77;;;7.05;;
11675;SDS011;5894;42.768;23.404;2022-08-20T07:05:18;8.27;;;6.65;;
11675;SDS011;5894;42.768;23.404;2022-08-20T07:07:45;8.50;;;6.57;;
11675;SDS011;5894;42.768;23.404;2022-08-20T07:10:15;11.02;;;7.28;;
11675;SDS011;5894;42.768;23.404;2022-08-20T07:12:43;9.88;;;6.97;;
11675;SDS011;5894;42.768;23.404;2022-08-20T07:15:11;9.02;;;7.13;;
11675;SDS011;5894;42.768;23.404;2022-08-20T07:17:40;9.57;;;7.28;;
11675;SDS011;5894;42.768;23.404;2022-08-20T07:20:08;7.95;;;6.75;;
11675;SDS011;5894;42.768;23.404;2022-08-20T07:22:37;8.40;;;7.30;;
11675;SDS011;5894;42.768;23.404;2022-08-20T07:25:04;7.35;;;6.65;;
11675;SDS011;5894;42.768;23.404;2022-08-20T07:27:35;9.13;;;7.13;;
11675;SDS011;5894;42.768;23.404;2022-08-20T07:30:02;7.35;;;6.65;;
11675;SDS011;5894;42.768;23.404;2022-08-20T07:32:48;10.88;;;6.82;;
11675;SDS011;5894;42.768;23.404;2022-08-20T07:35:15;8.15;;;6.97;;
11675;SDS011;5894;42.768;23.404;2022-08-20T07:37:44;8.18;;;6.53;;
11675;SDS011;5894;42.768;23.404;2022-08-20T07:40:15;8.95;;;7.10;;
11675;SDS011;5894;42.768;23.404;2022-08-20T07:42:45;11.68;;;7.60;;
11675;SDS011;5894;42.768;23.404;2022-08-20T07:45:13;11.55;;;8.82;;
11675;SDS011;5894;42.768;23.404;2022-08-20T07:47:42;11.27;;;8.85;;
11675;SDS011;5894;42.768;23.404;2022-08-20T07:50:10;10.40;;;7.72;;
11675;SDS011;5894;42.768;23.404;2022-08-20T07:52:39;11.13;;;7.35;;
11675;SDS011;5894;42.768;23.404;2022-08-20T07:55:08;8.85;;;7.07;;
11675;SDS011;5894;42.768;23.404;2022-08-20T07:57:36;8.05;;;7.05;;
11675;SDS011;5894;42.768;23.404;2022-08-20T08:00:06;9.15;;;6.90;;
11675;SDS011;5894;42.768;23.404;2022-08-20T08:02:35;7.90;;;6.93;;
11675;SDS011;5894;42.768;23.404;2022-08-20T08:05:02;12.18;;;7.57;;
11675;SDS011;5894;42.768;23.404;2022-08-20T08:07:29;10.30;;;7.55;;
11675;SDS011;5894;42.768;23.404;2022-08-20T08:09:57;8.95;;;7.75;;
11675;SDS011;5894;42.768;23.404;2022-08-20T08:12:27;9.40;;;6.70;;
11675;SDS011;5894;42.768;23.404;2022-08-20T08:15:00;10.27;;;7.30;;
11675;SDS011;5894;42.768;23.404;2022-08-20T08:17:30;7.30;;;6.60;;
11675;SDS011;5894;42.768;23.404;2022-08-20T08:19:57;9.20;;;7.13;;
11675;SDS011;5894;42.768;23.404;2022-08-20T08:22:24;9.20;;;7.20;;
11675;SDS011;5894;42.768;23.404;2022-08-20T08:24:51;9.02;;;7.97;;
11675;SDS011;5894;42.768;23.404;2022-08-20T08:27:18;9.25;;;8.10;;
11675;SDS011;5894;42.768;23.404;2022-08-20T08:29:46;16.20;;;10.43;;
11675;SDS011;5894;42.768;23.404;2022-08-20T08:32:13;25.02;;;13.50;;
11675;SDS011;5894;42.768;23.404;2022-08-20T08:34:42;11.88;;;8.60;;
11675;SDS011;5894;42.768;23.404;2022-08-20T08:37:12;17.85;;;10.45;;
11675;SDS011;5894;42.768;23.404;2022-08-20T08:39:41;20.83;;;14.55;;
11675;SDS011;5894;42.768;23.404;2022-08-20T08:42:16;10.30;;;9.20;;
11675;SDS011;5894;42.768;23.404;2022-08-20T08:44:51;11.32;;;8.73;;
11675;SDS011;5894;42.768;23.404;2022-08-20T08:47:19;9.20;;;7.40;;
11675;SDS011;5894;42.768;23.404;2022-08-20T08:49:52;8.07;;;6.78;;
11675;SDS011;5894;42.768;23.404;2022-08-20T08:52:21;7.28;;;6.57;;
11675;SDS011;5894;42.768;23.404;2022-08-20T08:54:52;9.02;;;7.00;;
11675;SDS011;5894;42.768;23.404;2022-08-20T08:57:21;7.35;;;6.55;;
11675;SDS011;5894;42.768;23.404;2022-08-20T08:59:50;10.73;;;7.72;;
11675;SDS011;5894;42.768;23.404;2022-08-20T09:02:22;14.65;;;8.10;;
11675;SDS011;5894;42.768;23.404;2022-08-20T09:04:52;8.75;;;7.60;;
11675;SDS011;5894;42.768;23.404;2022-08-20T09:07:21;7.32;;;6.60;;
11675;SDS011;5894;42.768;23.404;2022-08-20T09:09:50;8.13;;;6.78;;
11675;SDS011;5894;42.768;23.404;2022-08-20T09:12:18;9.48;;;6.93;;
11675;SDS011;5894;42.768;23.404;2022-08-20T09:14:46;8.43;;;6.40;;
11675;SDS011;5894;42.768;23.404;2022-08-20T09:17:15;7.15;;;6.45;;
11675;SDS011;5894;42.768;23.404;2022-08-20T09:19:43;8.77;;;6.93;;
11675;SDS011;5894;42.768;23.404;2022-08-20T09:22:12;7.38;;;6.68;;
11675;SDS011;5894;42.768;23.404;2022-08-20T09:24:41;10.07;;;6.63;;
11675;SDS011;5894;42.768;23.404;2022-08-20T09:27:08;7.03;;;6.32;;
11675;SDS011;5894;42.768;23.404;2022-08-20T09:29:38;7.35;;;6.75;;
11675;SDS011;5894;42.768;23.404;2022-08-20T09:32:05;7.22;;;6.43;;
11675;SDS011;5894;42.768;23.404;2022-08-20T09:34:35;7.93;;;6.97;;
11675;SDS011;5894;42.768;23.404;2022-08-20T09:37:03;7.40;;;6.68;;
11675;SDS011;5894;42.768;23.404;2022-08-20T09:39:31;7.55;;;6.85;;
11675;SDS011;5894;42.768;23.404;2022-08-20T09:42:05;8.38;;;7.10;;
11675;SDS011;5894;42.768;23.404;2022-08-20T09:44:32;12.95;;;10.13;;
11675;SDS011;5894;42.768;23.404;2022-08-20T09:46:59;18.58;;;11.65;;
11675;SDS011;5894;42.768;23.404;2022-08-20T09:49:26;11.05;;;8.45;;
11675;SDS011;5894;42.768;23.404;2022-08-20T09:51:53;7.63;;;6.60;;
11675;SDS011;5894;42.768;23.404;2022-08-20T09:54:20;7.30;;;6.60;;
11675;SDS011;5894;42.768;23.404;2022-08-20T09:56:49;6.97;;;6.28;;
11675;SDS011;5894;42.768;23.404;2022-08-20T09:59:15;7.05;;;6.45;;
11675;SDS011;5894;42.768;23.404;2022-08-20T10:01:42;7.15;;;6.45;;
11675;SDS011;5894;42.768;23.404;2022-08-20T10:04:10;9.80;;;6.97;;
11675;SDS011;5894;42.768;23.404;2022-08-20T10:06:38;11.75;;;6.75;;
11675;SDS011;5894;42.768;23.404;2022-08-20T10:09:05;8.65;;;6.75;;
11675;SDS011;5894;42.768;23.404;2022-08-20T10:11:32;8.02;;;6.65;;
11675;SDS011;5894;42.768;23.404;2022-08-20T10:14:01;6.80;;;6.10;;
11675;SDS011;5894;42.768;23.404;2022-08-20T10:16:27;6.97;;;6.05;;
11675;SDS011;5894;42.768;23.404;2022-08-20T10:18:55;6.82;;;6.10;;
11675;SDS011;5894;42.768;23.404;2022-08-20T10:21:22;7.10;;;6.25;;
11675;SDS011;5894;42.768;23.404;2022-08-20T10:23:49;8.95;;;6.50;;
11675;SDS011;5894;42.768;23.404;2022-08-20T10:26:16;10.75;;;9.75;;
11675;SDS011;5894;42.768;23.404;2022-08-20T10:28:42;7.93;;;7.00;;
11675;SDS011;5894;42.768;23.404;2022-08-20T10:31:11;7.03;;;6.32;;
11675;SDS011;5894;42.768;23.404;2022-08-20T10:33:38;8.20;;;6.85;;
11675;SDS011;5894;42.768;23.404;2022-08-20T10:36:06;7.68;;;6.32;;
11675;SDS011;5894;42.768;23.404;2022-08-20T10:38:34;7.50;;;6.78;;
11675;SDS011;5894;42.768;23.404;2022-08-20T10:41:01;7.47;;;6.68;;
11675;SDS011;5894;42.768;23.404;2022-08-20T10:43:28;7.47;;;6.60;;
11675;SDS011;5894;42.768;23.404;2022-08-20T10:45:55;6.53;;;5.93;;
11675;SDS011;5894;42.768;23.404;2022-08-20T10:48:26;9.90;;;8.52;;
11675;SDS011;5894;42.768;23.404;2022-08-20T10:50:53;9.63;;;7.97;;
11675;SDS011;5894;42.768;23.404;2022-08-20T10:53:20;8.50;;;7.07;;
11675;SDS011;5894;42.768;23.404;2022-08-20T10:55:46;11.45;;;8.60;;
11675;SDS011;5894;42.768;23.404;2022-08-20T10:58:13;10.15;;;7.80;;
11675;SDS011;5894;42.768;23.404;2022-08-20T11:00:40;11.32;;;6.38;;
11675;SDS011;5894;42.768;23.404;2022-08-20T11:03:07;7.53;;;6.30;;
11675;SDS011;5894;42.768;23.404;2022-08-20T11:05:35;13.23;;;8.23;;
11675;SDS011;5894;42.768;23.404;2022-08-20T11:08:02;16.05;;;10.05;;
11675;SDS011;5894;42.768;23.404;2022-08-20T11:10:31;21.45;;;13.00;;
11675;SDS011;5894;42.768;23.404;2022-08-20T11:12:59;18.80;;;12.50;;
11675;SDS011;5894;42.768;23.404;2022-08-20T11:15:26;21.40;;;13.82;;
11675;SDS011;5894;42.768;23.404;2022-08-20T11:17:54;49.75;;;28.33;;
11675;SDS011;5894;42.768;23.404;2022-08-20T11:20:21;7.72;;;6.95;;
11675;SDS011;5894;42.768;23.404;2022-08-20T11:22:51;12.00;;;8.35;;
11675;SDS011;5894;42.768;23.404;2022-08-20T11:25:19;21.85;;;15.35;;
11675;SDS011;5894;42.768;23.404;2022-08-20T11:27:48;9.90;;;8.32;;
11675;SDS011;5894;42.768;23.404;2022-08-20T11:30:17;14.98;;;9.60;;
11675;SDS011;5894;42.768;23.404;2022-08-20T11:32:46;7.80;;;7.00;;
11675;SDS011;5894;42.768;23.404;2022-08-20T11:35:14;8.27;;;7.10;;
11675;SDS011;5894;42.768;23.404;2022-08-20T11:37:41;8.48;;;7.40;;
11675;SDS011;5894;42.768;23.404;2022-08-20T11:40:10;7.68;;;6.35;;
11675;SDS011;5894;42.768;23.404;2022-08-20T11:42:37;8.73;;;6.07;;
11675;SDS011;5894;42.768;23.404;2022-08-20T11:45:04;7.32;;;5.70;;
11675;SDS011;5894;42.768;23.404;2022-08-20T11:47:32;7.68;;;6.05;;
11675;SDS011;5894;42.768;23.404;2022-08-20T11:50:02;6.90;;;6.20;;
11675;SDS011;5894;42.768;23.404;2022-08-20T11:52:31;6.82;;;6.13;;
11675;SDS011;5894;42.768;23.404;2022-08-20T11:54:58;7.30;;;6.43;;
11675;SDS011;5894;42.768;23.404;2022-08-20T11:57:28;8.30;;;7.47;;
11675;SDS011;5894;42.768;23.404;2022-08-20T11:59:56;10.05;;;7.93;;
11675;SDS011;5894;42.768;23.404;2022-08-20T12:02:26;22.13;;;13.88;;
11675;SDS011;5894;42.768;23.404;2022-08-20T12:04:53;15.80;;;10.40;;
11675;SDS011;5894;42.768;23.404;2022-08-20T12:07:22;14.93;;;10.30;;
11675;SDS011;5894;42.768;23.404;2022-08-20T12:09:50;12.30;;;9.50;;
11675;SDS011;5894;42.768;23.404;2022-08-20T12:12:17;9.68;;;7.45;;
11675;SDS011;5894;42.768;23.404;2022-08-20T12:14:47;7.38;;;6.53;;
11675;SDS011;5894;42.768;23.404;2022-08-20T12:17:16;7.05;;;6.38;;
11675;SDS011;5894;42.768;23.404;2022-08-20T12:19:49;6.80;;;6.10;;
11675;SDS011;5894;42.768;23.404;2022-08-20T12:22:17;8.70;;;6.20;;
11675;SDS011;5894;42.768;23.404;2022-08-20T12:24:45;12.30;;;7.07;;
11675;SDS011;5894;42.768;23.404;2022-08-20T12:27:13;9.55;;;6.82;;
11675;SDS011;5894;42.768;23.404;2022-08-20T12:29:43;14.80;;;8.68;;
11675;SDS011;5894;42.768;23.404;2022-08-20T12:32:13;17.83;;;11.02;;
11675;SDS011;5894;42.768;23.404;2022-08-20T12:34:40;22.55;;;11.98;;
11675;SDS011;5894;42.768;23.404;2022-08-20T12:37:09;23.55;;;13.30;;
11675;SDS011;5894;42.768;23.404;2022-08-20T12:39:38;39.78;;;18.25;;
11675;SDS011;5894;42.768;23.404;2022-08-20T12:42:07;30.08;;;17.25;;
11675;SDS011;5894;42.768;23.404;2022-08-20T12:44:35;38.22;;;20.30;;
11675;SDS011;5894;42.768;23.404;2022-08-20T12:47:07;44.63;;;22.83;;
11675;SDS011;5894;42.768;23.404;2022-08-20T12:49:37;127.93;;;54.72;;
11675;SDS011;5894;42.768;23.404;2022-08-20T12:52:06;127.90;;;54.45;;
11675;SDS011;5894;42.768;23.404;2022-08-20T12:54:33;82.72;;;38.60;;
11675;SDS011;5894;42.768;23.404;2022-08-20T12:57:01;45.75;;;22.70;;
11675;SDS011;5894;42.768;23.404;2022-08-20T13:17:30;14.23;;;8.43;;
11675;SDS011;5894;42.768;23.404;2022-08-20T13:19:57;16.85;;;8.35;;
11675;SDS011;5894;42.768;23.404;2022-08-20T13:22:24;13.73;;;8.70;;
11675;SDS011;5894;42.768;23.404;2022-08-20T13:24:51;12.05;;;8.40;;
11675;SDS011;5894;42.768;23.404;2022-08-20T13:27:18;15.60;;;8.85;;
11675;SDS011;5894;42.768;23.404;2022-08-20T13:29:47;14.57;;;7.93;;
11675;SDS011;5894;42.768;23.404;2022-08-20T13:32:14;12.40;;;8.43;;
11675;SDS011;5894;42.768;23.404;2022-08-20T13:34:42;10.43;;;7.90;;
11675;SDS011;5894;42.768;23.404;2022-08-20T13:37:11;11.13;;;8.43;;
11675;SDS011;5894;42.768;23.404;2022-08-20T13:39:38;12.82;;;8.18;;
11675;SDS011;5894;42.768;23.404;2022-08-20T13:42:06;13.95;;;9.15;;
11675;SDS011;5894;42.768;23.404;2022-08-20T13:44:33;11.23;;;8.50;;
11675;SDS011;5894;42.768;23.404;2022-08-20T13:47:11;13.63;;;8.82;;
11675;SDS011;5894;42.768;23.404;2022-08-20T13:49:38;13.57;;;10.43;;
11675;SDS011;5894;42.768;23.404;2022-08-20T13:52:07;11.40;;;8.82;;
11675;SDS011;5894;42.768;23.404;2022-08-20T13:54:34;13.98;;;9.65;;
11675;SDS011;5894;42.768;23.404;2022-08-20T13:57:04;10.90;;;9.55;;
11675;SDS011;5894;42.768;23.404;2022-08-20T13:59:36;12.52;;;9.18;;
11675;SDS011;5894;42.768;23.404;2022-08-20T14:02:04;13.63;;;9.80;;
11675;SDS011;5894;42.768;23.404;2022-08-20T14:04:31;11.13;;;9.25;;
11675;SDS011;5894;42.768;23.404;2022-08-20T14:07:08;10.63;;;9.13;;
11675;SDS011;5894;42.768;23.404;2022-08-20T14:09:36;10.43;;;9.25;;
11675;SDS011;5894;42.768;23.404;2022-08-20T14:12:04;10.05;;;9.05;;
11675;SDS011;5894;42.768;23.404;2022-08-20T14:14:31;10.57;;;8.98;;
11675;SDS011;5894;42.768;23.404;2022-08-20T14:16:58;9.20;;;8.23;;
11675;SDS011;5894;42.768;23.404;2022-08-20T14:19:25;10.38;;;8.52;;
11675;SDS011;5894;42.768;23.404;2022-08-20T14:21:52;9.73;;;8.68;;
11675;SDS011;5894;42.768;23.404;2022-08-20T14:24:20;11.15;;;8.90;;
11675;SDS011;5894;42.768;23.404;2022-08-20T14:26:47;20.70;;;10.55;;
11675;SDS011;5894;42.768;23.404;2022-08-20T14:29:14;16.20;;;10.05;;
11675;SDS011;5894;42.768;23.404;2022-08-20T14:31:44;17.13;;;9.90;;
11675;SDS011;5894;42.768;23.404;2022-08-20T14:34:11;11.35;;;8.15;;
11675;SDS011;5894;42.768;23.404;2022-08-20T14:36:38;13.10;;;7.45;;
11675;SDS011;5894;42.768;23.404;2022-08-20T14:39:05;13.02;;;6.97;;
11675;SDS011;5894;42.768;23.404;2022-08-20T14:41:33;9.00;;;7.20;;
11675;SDS011;5894;42.768;23.404;2022-08-20T14:44:00;10.85;;;8.13;;
11675;SDS011;5894;42.768;23.404;2022-08-20T14:46:27;11.80;;;8.50;;
11675;SDS011;5894;42.768;23.404;2022-08-20T14:48:54;10.40;;;7.50;;
11675;SDS011;5894;42.768;23.404;2022-08-20T14:51:21;12.25;;;7.70;;
11675;SDS011;5894;42.768;23.404;2022-08-20T14:53:47;11.25;;;8.30;;
11675;SDS011;5894;42.768;23.404;2022-08-20T14:56:14;12.93;;;7.80;;
11675;SDS011;5894;42.768;23.404;2022-08-20T14:58:43;12.95;;;7.20;;
11675;SDS011;5894;42.768;23.404;2022-08-20T15:01:10;8.52;;;6.65;;
11675;SDS011;5894;42.768;23.404;2022-08-20T15:03:37;13.75;;;6.35;;
11675;SDS011;5894;42.768;23.404;2022-08-20T15:06:04;10.75;;;5.93;;
11675;SDS011;5894;42.768;23.404;2022-08-20T15:08:31;8.35;;;5.88;;
11675;SDS011;5894;42.768;23.404;2022-08-20T15:10:58;8.23;;;4.75;;
11675;SDS011;5894;42.768;23.404;2022-08-20T15:13:25;9.20;;;6.30;;
11675;SDS011;5894;42.768;23.404;2022-08-20T15:15:53;13.50;;;8.48;;
11675;SDS011;5894;42.768;23.404;2022-08-20T15:18:20;9.90;;;8.15;;
11675;SDS011;5894;42.768;23.404;2022-08-20T15:20:49;10.02;;;8.55;;
11675;SDS011;5894;42.768;23.404;2022-08-20T15:23:16;11.45;;;8.07;;